Time;durP1;ratioP1;P1;durP2;ratioP2;P2;SDS_P1;SDS_P2;PMS_P1;PMS_P2;Temp;Humidity;BMP_temperature;BMP_pressure;BME280_temperature;BME280_humidity;BME280_pressure;Samples;Min_cycle;Max_cycle;Signal;HPM_P1;HPM_P2
2022/05/09 00:00:08;;;;;;;14.73;3.72;;;6.20;99.90;;;;;;5016642;28;20533;-83
2022/05/09 00:02:34;;;;;;;17.92;4.40;;;6.20;99.90;;;;;;5016677;28;20083;-83
2022/05/09 00:05:00;;;;;;;18.73;5.00;;;6.20;99.90;;;;;;5016534;28;20081;-83
2022/05/09 00:07:25;;;;;;;20.52;4.95;;;6.20;99.90;;;;;;5034394;28;20069;-83
2022/05/09 00:09:51;;;;;;;17.15;4.13;;;6.10;99.90;;;;;;5034397;28;20051;-83
2022/05/09 00:12:17;;;;;;;16.77;4.22;;;6.10;99.90;;;;;;5032965;28;20041;-83
2022/05/09 00:14:43;;;;;;;19.08;4.10;;;6.40;99.90;;;;;;5016238;28;20041;-83
2022/05/09 00:17:09;;;;;;;16.00;4.22;;;6.00;99.90;;;;;;5033765;28;20049;-83
2022/05/09 00:19:35;;;;;;;13.18;3.70;;;6.00;99.90;;;;;;5034317;28;20379;-84
2022/05/09 00:22:02;;;;;;;23.05;4.53;;;6.10;99.90;;;;;;5015960;28;20045;-83
2022/05/09 00:24:29;;;;;;;18.02;4.45;;;6.00;99.90;;;;;;5016425;28;20088;-83
2022/05/09 00:26:55;;;;;;;16.30;3.90;;;6.00;99.90;;;;;;5032649;28;20037;-83
2022/05/09 00:29:22;;;;;;;19.20;4.63;;;6.00;99.90;;;;;;4999392;28;20430;-83
2022/05/09 00:31:51;;;;;;;21.77;4.40;;;6.30;99.90;;;;;;5033977;28;20042;-84
2022/05/09 00:34:18;;;;;;;18.48;4.80;;;6.00;99.90;;;;;;5033743;28;20098;-83
2022/05/09 00:36:46;;;;;;;14.05;4.43;;;5.90;99.90;;;;;;5033802;28;20545;-83
2022/05/09 00:39:12;;;;;;;15.10;4.75;;;5.90;99.90;;;;;;5033427;28;20049;-82
2022/05/09 00:41:39;;;;;;;20.58;4.72;;;5.80;99.90;;;;;;5015840;28;20042;-83
2022/05/09 00:44:09;;;;;;;18.88;4.68;;;5.80;99.90;;;;;;5015811;28;20125;-83
2022/05/09 00:46:40;;;;;;;15.57;4.07;;;5.80;99.90;;;;;;5015898;28;20042;-82
2022/05/09 00:49:24;;;;;;;19.95;4.95;;;5.80;99.90;;;;;;5033507;28;20386;-83
2022/05/09 00:52:18;;;;;;;13.18;3.90;;;5.80;99.90;;;;;;5032390;28;20132;-82
2022/05/09 00:55:12;;;;;;;23.13;4.65;;;5.80;99.90;;;;;;4950054;29;20051;-82
2022/05/09 00:58:04;;;;;;;20.88;4.30;;;5.80;99.90;;;;;;4948868;29;20410;-83
2022/05/09 01:00:29;;;;;;;;;;;6.20;99.90;;;;;;4934094;29;20047;-82
2022/05/09 01:03:00;;;;;;;19.95;4.65;;;5.80;99.90;;;;;;4933699;29;20383;-83
2022/05/09 01:05:29;;;;;;;24.88;4.95;;;5.80;99.90;;;;;;4933738;29;20063;-83
2022/05/09 01:07:56;;;;;;;24.52;4.97;;;5.80;99.90;;;;;;4933819;29;20181;-82
2022/05/09 01:10:30;;;;;;;16.70;4.90;;;5.80;99.90;;;;;;4950040;29;20043;-82
2022/05/09 01:12:58;;;;;;;18.67;4.68;;;5.80;99.90;;;;;;4968915;28;20142;-82
2022/05/09 01:15:25;;;;;;;20.63;5.13;;;5.70;99.90;;;;;;4968817;28;20127;-86
2022/05/09 01:17:51;;;;;;;24.13;5.07;;;5.70;99.90;;;;;;4952581;29;20055;-83
2022/05/09 01:20:17;;;;;;;19.77;4.93;;;5.70;99.90;;;;;;4969039;28;20465;-83
2022/05/09 01:22:43;;;;;;;20.00;4.68;;;5.70;99.90;;;;;;4968743;28;20180;-83
2022/05/09 01:25:13;;;;;;;17.50;5.43;;;5.60;99.90;;;;;;4936839;29;20059;-82
2022/05/09 01:27:42;;;;;;;25.17;5.60;;;5.60;99.90;;;;;;4952781;29;20055;-82
2022/05/09 01:30:30;;;;;;;22.80;5.30;;;5.80;99.90;;;;;;4936611;29;20043;-89
2022/05/09 01:33:03;;;;;;;24.33;5.35;;;5.60;99.90;;;;;;4987751;28;20089;-83
2022/05/09 01:35:33;;;;;;;16.33;4.97;;;5.70;99.90;;;;;;5028566;28;20046;-83
2022/05/09 01:38:34;;;;;;;20.85;5.18;;;5.90;99.90;;;;;;5013496;28;20054;-83
2022/05/09 01:41:00;;;;;;;19.80;4.68;;;5.60;99.90;;;;;;4995676;28;20050;-83
2022/05/09 01:43:38;;;;;;;17.65;4.60;;;5.50;99.90;;;;;;4995262;28;20494;-83
2022/05/09 01:46:07;;;;;;;19.50;5.05;;;5.50;99.90;;;;;;5011818;28;20388;-83
2022/05/09 01:51:17;;;;;;;21.85;5.47;;;5.50;99.90;;;;;;5012024;28;20060;-83
2022/05/09 01:53:52;;;;;;;22.55;4.90;;;5.50;99.90;;;;;;5005089;28;20050;-83
2022/05/09 01:56:23;;;;;;;21.73;5.45;;;5.40;99.90;;;;;;5012116;28;20045;-82
2022/05/09 01:58:49;;;;;;;27.77;5.40;;;5.40;99.90;;;;;;5012221;28;20038;-83
2022/05/09 02:01:16;;;;;;;23.40;5.50;;;5.40;99.90;;;;;;4994168;28;20054;-83
2022/05/09 02:03:45;;;;;;;24.73;5.63;;;5.40;99.90;;;;;;5010348;28;20399;-84
2022/05/09 02:06:14;;;;;;;18.00;5.00;;;5.40;99.90;;;;;;4994482;28;20408;-82
2022/05/09 02:08:41;;;;;;;23.73;5.93;;;5.40;99.90;;;;;;5027499;28;20046;-82
2022/05/09 02:11:07;;;;;;;17.83;5.50;;;5.40;99.90;;;;;;5027393;28;20046;-83
2022/05/09 02:13:33;;;;;;;21.55;5.55;;;5.30;99.90;;;;;;5011833;28;20042;-82
2022/05/09 02:16:00;;;;;;;29.25;5.25;;;5.30;99.90;;;;;;5010535;28;20507;-83
2022/05/09 02:18:25;;;;;;;29.85;6.50;;;5.30;99.90;;;;;;5027025;28;20045;-82
2022/05/09 02:20:51;;;;;;;21.90;5.30;;;5.30;99.90;;;;;;5011394;28;20124;-84
2022/05/09 02:23:17;;;;;;;22.15;5.70;;;5.20;99.90;;;;;;4994427;28;20038;-82
2022/05/09 02:25:45;;;;;;;17.45;5.65;;;5.50;99.90;;;;;;5011826;28;20506;-86
2022/05/09 02:28:13;;;;;;;22.27;5.43;;;5.20;99.90;;;;;;5011617;28;20049;-83
2022/05/09 02:30:40;;;;;;;14.27;5.18;;;5.20;99.90;;;;;;4977799;28;20129;-83
2022/05/09 02:33:07;;;;;;;25.15;5.95;;;5.10;99.90;;;;;;4992813;28;20049;-82
2022/05/09 02:35:34;;;;;;;15.15;5.82;;;5.10;99.90;;;;;;4994321;28;20475;-82
2022/05/09 02:38:00;;;;;;;20.90;6.00;;;5.00;99.90;;;;;;4994479;28;20034;-82
2022/05/09 02:40:26;;;;;;;23.77;6.47;;;5.00;99.90;;;;;;4994122;28;20041;-83
2022/05/09 02:42:53;;;;;;;19.85;5.38;;;4.90;99.90;;;;;;5026627;28;20046;-82
2022/05/09 02:45:20;;;;;;;24.60;5.65;;;4.90;99.90;;;;;;5011007;28;20046;-83
2022/05/09 02:47:46;;;;;;;25.60;5.53;;;4.90;99.90;;;;;;5011361;28;20450;-82
2022/05/09 02:50:13;;;;;;;19.42;4.93;;;4.80;99.90;;;;;;5010871;28;20129;-82
2022/05/09 02:52:39;;;;;;;22.98;6.18;;;4.80;99.90;;;;;;4991392;28;1091088;-82
2022/05/09 02:55:06;;;;;;;21.00;5.68;;;4.80;99.90;;;;;;4998111;28;20372;-82
2022/05/09 02:57:32;;;;;;;21.35;5.53;;;4.80;99.90;;;;;;5014631;28;20055;-82
2022/05/09 02:59:57;;;;;;;30.58;6.28;;;4.70;99.90;;;;;;5014231;28;20037;-83
2022/05/09 03:02:24;;;;;;;23.40;6.63;;;4.70;99.90;;;;;;4997886;28;20091;-82
2022/05/09 03:04:50;;;;;;;21.50;5.40;;;4.70;99.90;;;;;;5017359;28;20047;-83
2022/05/09 03:07:17;;;;;;;19.45;6.22;;;4.80;99.90;;;;;;5017937;28;20116;-82
2022/05/09 03:09:47;;;;;;;24.88;6.32;;;4.90;99.90;;;;;;5035452;28;20041;-83
2022/05/09 03:12:13;;;;;;;22.08;6.25;;;4.60;99.90;;;;;;5035522;28;20037;-83
2022/05/09 03:14:39;;;;;;;23.58;6.57;;;4.60;99.90;;;;;;5017614;28;20467;-82
2022/05/09 03:17:06;;;;;;;20.98;6.45;;;4.70;99.90;;;;;;5017721;28;20103;-84
2022/05/09 03:19:33;;;;;;;21.17;6.25;;;4.60;99.90;;;;;;5001097;28;20072;-83
2022/05/09 03:21:59;;;;;;;22.15;6.18;;;4.50;99.90;;;;;;5017446;28;20099;-83
2022/05/09 03:24:25;;;;;;;22.88;6.05;;;4.50;99.90;;;;;;5017924;28;20076;-83
2022/05/09 03:26:51;;;;;;;19.15;5.93;;;4.40;99.90;;;;;;5017735;28;20087;-84
2022/05/09 03:29:18;;;;;;;28.90;6.85;;;4.40;99.90;;;;;;5016971;28;20054;-82
2022/05/09 03:31:47;;;;;;;18.30;6.40;;;4.30;99.90;;;;;;5035044;28;20196;-82
2022/05/09 03:34:14;;;;;;;23.90;6.15;;;4.40;99.90;;;;;;5017390;28;20044;-83
2022/05/09 03:36:40;;;;;;;25.90;6.55;;;4.30;99.90;;;;;;5017233;28;20045;-83
2022/05/09 03:39:06;;;;;;;23.15;6.13;;;4.70;99.90;;;;;;5034701;28;20091;-83
2022/05/09 03:41:32;;;;;;;18.95;6.45;;;4.30;99.90;;;;;;5016871;28;20479;-83
2022/05/09 03:44:00;;;;;;;28.70;7.03;;;4.30;99.90;;;;;;5016316;28;20052;-83
2022/05/09 03:46:26;;;;;;;23.60;5.82;;;4.20;99.90;;;;;;5016504;28;20041;-83
2022/05/09 03:48:52;;;;;;;20.85;6.43;;;4.20;99.90;;;;;;5016872;28;20041;-84
2022/05/09 03:51:19;;;;;;;23.95;6.63;;;4.20;99.90;;;;;;5033630;28;20486;-84
2022/05/09 03:53:44;;;;;;;19.55;6.93;;;4.30;99.90;;;;;;5016389;28;20060;-83
2022/05/09 03:56:10;;;;;;;19.70;6.97;;;4.20;99.90;;;;;;5016950;28;20042;-83
2022/05/09 03:58:39;;;;;;;22.73;7.30;;;4.20;99.90;;;;;;5000938;28;20034;-83
2022/05/09 04:01:05;;;;;;;22.73;7.32;;;4.20;99.90;;;;;;5016855;28;20072;-83
2022/05/09 04:03:31;;;;;;;23.23;7.65;;;4.20;99.90;;;;;;5034610;28;20371;-84
2022/05/09 04:05:57;;;;;;;25.38;7.93;;;4.30;99.90;;;;;;5034387;28;20042;-83
2022/05/09 04:08:23;;;;;;;23.80;7.13;;;4.30;99.90;;;;;;5016814;28;20383;-82
2022/05/09 04:10:52;;;;;;;21.27;7.00;;;4.20;99.90;;;;;;5016827;28;20071;-83
2022/05/09 04:13:18;;;;;;;26.05;8.07;;;4.20;99.90;;;;;;5016539;28;20045;-83
2022/05/09 04:18:53;;;;;;;23.45;7.38;;;4.20;99.90;;;;;;5016671;28;20049;-82
2022/05/09 04:21:20;;;;;;;26.35;7.95;;;4.20;99.90;;;;;;5016989;28;20049;-83
2022/05/09 04:23:45;;;;;;;24.90;7.35;;;4.30;99.90;;;;;;5016146;28;20522;-83
2022/05/09 04:26:12;;;;;;;22.42;7.80;;;4.20;99.90;;;;;;5016348;28;20081;-83
2022/05/09 04:28:38;;;;;;;31.35;8.05;;;4.20;99.90;;;;;;5016313;28;20060;-83
2022/05/09 04:31:04;;;;;;;30.83;8.10;;;4.20;99.90;;;;;;5016359;28;20038;-83
2022/05/09 04:33:30;;;;;;;22.10;7.53;;;4.30;99.90;;;;;;4999773;28;20053;-83
2022/05/09 04:35:57;;;;;;;26.20;7.88;;;4.40;99.90;;;;;;5032426;28;20057;-86
2022/05/09 04:38:24;;;;;;;23.45;7.88;;;4.40;99.90;;;;;;5016224;28;20111;-83
2022/05/09 04:40:52;;;;;;;36.13;8.20;;;4.50;99.90;;;;;;5016398;28;20057;-83
2022/05/09 04:43:19;;;;;;;23.17;7.72;;;4.60;99.90;;;;;;5016383;28;20106;-83
2022/05/09 04:45:45;;;;;;;26.80;8.23;;;4.60;99.90;;;;;;5033508;28;20402;-83
2022/05/09 04:48:14;;;;;;;29.67;8.20;;;4.60;99.90;;;;;;5033523;28;20494;-83
2022/05/09 04:50:40;;;;;;;21.58;7.85;;;4.70;99.90;;;;;;5016218;28;20045;-83
2022/05/09 04:53:05;;;;;;;31.42;8.30;;;4.80;99.90;;;;;;5016006;28;20045;-82
2022/05/09 04:55:31;;;;;;;20.50;7.20;;;5.10;99.90;;;;;;5016044;28;20057;-83
2022/05/09 04:57:57;;;;;;;23.52;7.70;;;5.00;99.90;;;;;;5033444;28;20534;-83
2022/05/09 05:00:25;;;;;;;24.08;7.53;;;5.20;99.90;;;;;;5015749;28;20395;-82
2022/05/09 05:02:51;;;;;;;22.60;7.57;;;5.10;99.90;;;;;;5033390;28;20053;-83
2022/05/09 05:05:17;;;;;;;22.63;7.53;;;5.60;99.90;;;;;;5016124;28;20124;-82
2022/05/09 05:07:43;;;;;;;21.25;7.97;;;5.60;99.90;;;;;;5015542;28;20132;-82
2022/05/09 05:10:11;;;;;;;37.83;8.10;;;5.40;99.90;;;;;;5015722;28;20045;-82
2022/05/09 05:12:37;;;;;;;28.02;8.20;;;5.50;99.90;;;;;;5015825;28;20068;-82
2022/05/09 05:15:04;;;;;;;32.83;9.48;;;5.60;99.90;;;;;;5015541;28;20099;-82
2022/05/09 05:17:29;;;;;;;25.40;8.55;;;5.70;99.90;;;;;;5015910;28;20120;-82
2022/05/09 05:19:55;;;;;;;23.42;8.48;;;5.80;99.90;;;;;;5015950;28;20083;-85
2022/05/09 05:22:22;;;;;;;26.60;8.43;;;6.00;99.90;;;;;;5015693;28;20029;-82
2022/05/09 05:24:52;;;;;;;27.25;7.63;;;6.00;99.90;;;;;;5015719;28;20037;-83
2022/05/09 05:27:21;;;;;;;23.80;7.80;;;6.20;99.90;;;;;;5015484;28;20053;-83
2022/05/09 05:29:47;;;;;;;17.17;7.20;;;6.30;99.90;;;;;;5032034;28;20084;-82
2022/05/09 05:32:21;;;;;;;28.65;8.20;;;6.40;99.90;;;;;;5016084;28;20510;-83
2022/05/09 05:34:50;;;;;;;26.58;7.22;;;6.50;99.90;;;;;;5033497;28;20045;-83
2022/05/09 05:37:17;;;;;;;20.50;7.95;;;6.60;99.90;;;;;;5034080;28;20044;-82
2022/05/09 05:39:44;;;;;;;15.00;7.82;;;6.70;99.90;;;;;;5015678;28;20138;-83
2022/05/09 05:42:11;;;;;;;25.52;7.57;;;6.90;99.90;;;;;;5016083;28;20396;-83
2022/05/09 05:44:37;;;;;;;20.85;7.65;;;6.90;99.90;;;;;;5033655;28;20048;-81
2022/05/09 05:47:09;;;;;;;21.10;7.20;;;7.20;99.90;;;;;;5016554;28;20077;-81
2022/05/09 05:49:35;;;;;;;;;;;7.20;99.90;;;;;;5016203;28;20471;-82
2022/05/09 05:52:03;;;;;;;26.15;7.40;;;7.30;99.90;;;;;;4999767;28;19921;-82
2022/05/09 05:54:34;;;;;;;29.05;7.57;;;7.40;99.90;;;;;;5033686;28;20045;-82
2022/05/09 05:57:01;;;;;;;22.27;6.90;;;7.50;99.90;;;;;;5034074;28;20118;-83
2022/05/09 05:59:27;;;;;;;23.73;7.15;;;7.60;99.90;;;;;;5033631;28;20049;-83
2022/05/09 06:01:53;;;;;;;23.52;8.02;;;7.80;99.90;;;;;;5015462;28;20382;-86
2022/05/09 06:04:20;;;;;;;24.77;7.63;;;7.90;99.90;;;;;;5032957;28;20383;-83
2022/05/09 06:06:46;;;;;;;28.45;7.57;;;8.00;99.90;;;;;;5017653;28;20128;-83
2022/05/09 06:09:14;;;;;;;21.48;7.63;;;8.20;99.90;;;;;;5029506;28;20447;-83
2022/05/09 06:11:41;;;;;;;18.88;6.97;;;8.30;99.90;;;;;;5042372;28;20083;-83
2022/05/09 06:14:07;;;;;;;22.55;7.05;;;8.40;99.90;;;;;;5052227;28;20115;-82
2022/05/09 06:16:34;;;;;;;26.35;6.95;;;8.50;99.90;;;;;;5035017;28;20041;-83
2022/05/09 06:19:00;;;;;;;20.40;6.70;;;8.60;99.90;;;;;;5052590;28;20090;-83
2022/05/09 06:21:27;;;;;;;22.67;7.05;;;9.10;99.90;;;;;;5034847;28;20048;-83
2022/05/09 06:23:53;;;;;;;19.98;6.43;;;8.90;99.90;;;;;;5034645;28;20526;-83
2022/05/09 06:26:21;;;;;;;23.73;7.10;;;9.10;99.90;;;;;;5034643;28;20084;-84
2022/05/09 06:28:46;;;;;;;17.27;7.03;;;9.40;99.90;;;;;;5034264;28;20049;-82
2022/05/09 06:31:12;;;;;;;25.17;6.70;;;10.10;99.90;;;;;;5034917;28;20110;-83
2022/05/09 06:33:38;;;;;;;19.20;7.15;;;11.40;99.90;;;;;;5034735;28;20495;-83
2022/05/09 06:36:05;;;;;;;22.50;7.28;;;12.30;99.90;;;;;;5034712;28;20125;-84
2022/05/09 06:38:31;;;;;;;18.77;6.70;;;12.50;99.90;;;;;;5036122;28;20052;-84
2022/05/09 06:41:00;;;;;;;18.80;7.38;;;12.50;99.90;;;;;;5044147;28;20049;-84
2022/05/09 06:43:26;;;;;;;25.17;9.02;;;12.40;99.90;;;;;;5036222;28;20109;-84
2022/05/09 06:45:52;;;;;;;15.73;6.30;;;12.30;99.90;;;;;;5034760;28;20061;-83
2022/05/09 06:48:18;;;;;;;17.55;6.05;;;12.60;99.90;;;;;;5018707;28;20065;-84
2022/05/09 06:50:44;;;;;;;24.90;6.82;;;12.60;99.90;;;;;;5035688;28;20079;-83
2022/05/09 06:53:12;;;;;;;21.35;6.55;;;12.20;99.90;;;;;;5035479;28;20061;-84
2022/05/09 06:55:37;;;;;;;18.75;6.07;;;12.20;99.90;;;;;;5035991;28;20049;-84
2022/05/09 07:00:39;;;;;;;21.80;6.40;;;12.80;99.90;;;;;;5381032;23;20055;-81
2022/05/09 07:03:05;;;;;;;21.65;5.43;;;13.40;99.90;;;;;;4939872;29;20050;-82
2022/05/09 07:05:32;;;;;;;19.17;5.93;;;14.20;99.90;;;;;;4957179;29;20051;-82
2022/05/09 07:07:58;;;;;;;21.33;5.57;;;15.10;99.90;;;;;;4924549;29;20047;-82
2022/05/09 07:10:26;;;;;;;20.20;5.68;;;15.90;99.90;;;;;;4924605;29;20047;-83
2022/05/09 07:12:54;;;;;;;15.57;4.95;;;16.70;99.90;;;;;;4940646;29;20066;-83
2022/05/09 07:15:29;;;;;;;13.93;4.55;;;17.10;99.90;;;;;;4940571;29;20495;-84
2022/05/09 07:17:55;;;;;;;11.98;4.15;;;17.10;99.90;;;;;;4940418;29;20051;-84
2022/05/09 07:20:25;;;;;;;16.95;5.07;;;16.90;99.90;;;;;;4957260;29;20130;-83
2022/05/09 07:22:53;;;;;;;14.13;5.10;;;16.90;99.90;;;;;;4924475;29;20526;-83
2022/05/09 07:25:19;;;;;;;14.85;5.07;;;17.30;99.90;;;;;;4955816;29;20047;-83
2022/05/09 07:27:45;;;;;;;17.40;5.40;;;17.70;99.90;;;;;;4957352;29;20047;-83
2022/05/09 07:30:20;;;;;;;14.60;4.75;;;17.80;99.90;;;;;;4957256;29;20062;-82
2022/05/09 07:32:46;;;;;;;15.55;5.05;;;17.60;99.90;;;;;;4924229;29;20058;-83
2022/05/09 07:35:15;;;;;;;16.67;5.00;;;17.50;99.90;;;;;;4956996;29;20470;-83
2022/05/09 07:37:41;;;;;;;15.85;4.80;;;17.80;99.90;;;;;;4940103;29;20055;-83
2022/05/09 07:40:09;;;;;;;12.98;4.38;;;18.10;99.90;;;;;;4940088;29;20106;-82
2022/05/09 07:42:35;;;;;;;13.15;4.05;;;18.40;98.90;;;;;;4939843;29;20047;-83
2022/05/09 07:45:04;;;;;;;16.60;4.93;;;19.20;92.30;;;;;;4957515;29;20140;-83
2022/05/09 07:47:31;;;;;;;15.85;5.32;;;20.30;76.40;;;;;;4957032;29;20047;-83
2022/05/09 07:49:57;;;;;;;16.23;4.75;;;21.20;68.20;;;;;;4940611;29;20051;-84
2022/05/09 07:52:23;;;;;;;16.92;4.88;;;22.10;62.70;;;;;;4958136;29;20093;-84
2022/05/09 07:54:49;;;;;;;16.95;4.93;;;22.70;58.20;;;;;;4957252;29;20720;-84
2022/05/09 07:57:15;;;;;;;17.63;5.50;;;23.30;55.50;;;;;;4941811;29;20050;-83
2022/05/09 07:59:41;;;;;;;19.60;5.32;;;23.80;53.80;;;;;;4963301;29;20059;-83
2022/05/09 08:02:07;;;;;;;13.68;4.80;;;24.30;52.30;;;;;;4958092;29;20174;-83
2022/05/09 08:04:33;;;;;;;15.70;5.18;;;24.60;51.20;;;;;;4956630;29;20105;-84
2022/05/09 08:06:59;;;;;;;17.17;4.85;;;25.00;49.90;;;;;;4956419;29;20053;-88
2022/05/09 08:09:24;;;;;;;12.55;4.72;;;25.30;48.60;;;;;;4923165;29;20134;-83
2022/05/09 08:11:50;;;;;;;12.80;4.53;;;25.60;47.30;;;;;;4939472;29;20378;-84
2022/05/09 08:14:16;;;;;;;12.95;4.35;;;25.70;46.40;;;;;;4939483;29;20054;-84
2022/05/09 08:16:43;;;;;;;12.38;4.10;;;25.90;45.50;;;;;;4956069;29;20110;-84
2022/05/09 08:19:11;;;;;;;11.80;4.55;;;26.20;45.10;;;;;;4955850;29;20047;-85
2022/05/09 08:21:37;;;;;;;12.57;5.15;;;26.30;44.60;;;;;;4939075;29;20086;-84
2022/05/09 08:24:05;;;;;;;14.23;4.90;;;26.30;43.50;;;;;;4956287;29;20487;-84
2022/05/09 08:26:31;;;;;;;13.25;4.32;;;26.20;43.70;;;;;;4956125;29;20504;-83
2022/05/09 08:28:57;;;;;;;20.52;5.05;;;26.30;43.40;;;;;;4938312;29;20063;-84
2022/05/09 08:31:23;;;;;;;14.63;4.28;;;26.60;43.10;;;;;;4955432;29;20100;-86
2022/05/09 08:33:51;;;;;;;13.30;3.90;;;26.90;42.30;;;;;;4938646;29;20126;-84
2022/05/09 08:39:04;;;;;;;15.48;3.47;;;27.40;41.10;;;;;;4955485;29;20520;-84
2022/05/09 08:41:51;;;;;;;12.18;4.07;;;27.60;39.90;;;;;;4955534;29;20560;-84
2022/05/09 08:44:29;;;;;;;11.82;3.97;;;27.80;38.80;;;;;;4955418;29;20503;-84
2022/05/09 08:47:06;;;;;;;10.90;3.90;;;27.80;38.10;;;;;;4938520;29;20138;-85
2022/05/09 08:49:47;;;;;;;11.95;3.63;;;27.90;38.10;;;;;;4938509;29;20050;-85
2022/05/09 08:52:22;;;;;;;13.18;3.67;;;28.00;38.40;;;;;;4938552;29;20376;-84
2022/05/09 08:54:49;;;;;;;13.45;3.95;;;28.10;38.60;;;;;;4938478;29;20055;-84
2022/05/09 08:57:20;;;;;;;8.93;3.10;;;28.20;38.80;;;;;;4938694;29;20051;-85
2022/05/09 08:59:58;;;;;;;15.77;4.53;;;28.40;37.30;;;;;;4955140;29;20067;-85
2022/05/09 09:02:36;;;;;;;11.70;3.83;;;28.60;36.70;;;;;;4954659;28;20051;-85
2022/05/09 09:05:03;;;;;;;14.23;4.20;;;28.70;37.00;;;;;;4938238;29;20395;-84
2022/05/09 09:07:36;;;;;;;12.55;3.90;;;28.80;37.20;;;;;;4938207;29;20051;-84
2022/05/09 09:10:17;;;;;;;12.52;3.58;;;29.10;36.80;;;;;;4955001;29;20460;-85
2022/05/09 09:12:59;;;;;;;12.48;3.80;;;29.10;35.90;;;;;;4955371;29;20047;-87
2022/05/09 09:15:34;;;;;;;11.05;3.33;;;29.20;36.80;;;;;;4937749;29;20114;-85
2022/05/09 09:18:19;;;;;;;9.65;3.60;;;29.30;34.90;;;;;;4937890;29;20396;-84
2022/05/09 09:21:29;;;;;;;12.52;3.53;;;29.10;35.30;;;;;;4954747;29;20047;-85
2022/05/09 09:24:06;;;;;;;8.75;3.63;;;29.10;36.10;;;;;;4895394;29;20063;-84
2022/05/09 09:26:40;;;;;;;14.38;3.88;;;29.40;36.80;;;;;;4880095;29;20104;-84
2022/05/09 09:29:13;;;;;;;11.38;2.70;;;29.80;36.30;;;;;;4880011;29;20427;-86
2022/05/09 09:31:46;;;;;;;7.85;2.78;;;30.10;34.40;;;;;;4880199;29;20077;-84
2022/05/09 09:34:39;;;;;;;9.05;2.92;;;30.10;33.90;;;;;;4895561;29;20068;-84
2022/05/09 09:37:19;;;;;;;16.85;3.55;;;30.00;33.70;;;;;;4880076;29;20056;-84
2022/05/09 09:39:45;;;;;;;8.73;2.90;;;30.00;33.60;;;;;;4895326;29;20524;-84
2022/05/09 09:42:10;;;;;;;12.27;3.13;;;29.90;33.50;;;;;;4895459;29;20056;-85
2022/05/09 09:44:40;;;;;;;9.13;3.10;;;30.10;34.90;;;;;;4895401;29;20237;-84
2022/05/09 09:47:21;;;;;;;7.30;2.60;;;30.20;34.00;;;;;;4880007;29;20222;-85
2022/05/09 09:49:50;;;;;;;10.38;2.83;;;30.30;34.20;;;;;;4879942;29;20124;-85
2022/05/09 09:52:23;;;;;;;12.70;2.75;;;30.50;33.60;;;;;;4896394;29;20100;-85
2022/05/09 09:55:19;;;;;;;8.88;2.90;;;30.60;32.40;;;;;;4895742;29;20100;-85
2022/05/09 09:57:46;;;;;;;10.10;2.63;;;30.50;33.20;;;;;;4895607;29;20511;-84
2022/05/09 10:00:15;;;;;;;9.52;2.38;;;30.70;32.40;;;;;;4904124;29;20052;-84
2022/05/09 10:02:41;;;;;;;10.98;2.47;;;31.10;32.40;;;;;;4914234;29;20107;-86
2022/05/09 10:05:16;;;;;;;9.07;2.92;;;31.10;31.60;;;;;;4915768;29;20060;-85
2022/05/09 10:07:47;;;;;;;7.75;2.60;;;31.00;31.20;;;;;;4917194;29;20067;-84
2022/05/09 10:10:20;;;;;;;9.05;2.90;;;30.60;32.40;;;;;;4918356;29;20511;-84
2022/05/09 10:12:49;;;;;;;6.53;2.50;;;30.50;32.80;;;;;;4916347;29;20056;-85
2022/05/09 10:15:34;;;;;;;9.75;2.80;;;30.60;32.50;;;;;;4918121;29;20052;-85
2022/05/09 10:18:17;;;;;;;10.50;2.97;;;30.60;33.70;;;;;;4901976;29;20550;-86
2022/05/09 10:20:43;;;;;;;12.32;3.20;;;30.80;32.50;;;;;;4918000;29;20515;-85
2022/05/09 10:26:21;;;;;;;7.40;2.92;;;31.00;32.30;;;;;;4917782;29;20066;-85
2022/05/09 10:28:52;;;;;;;9.68;3.15;;;31.00;33.40;;;;;;4901945;29;20458;-86
2022/05/09 10:31:27;;;;;;;8.38;2.90;;;31.20;33.80;;;;;;4917839;29;20056;-85
2022/05/09 10:34:08;;;;;;;12.30;3.45;;;31.60;33.10;;;;;;4924540;29;20146;-86
2022/05/09 10:36:39;;;;;;;11.82;2.97;;;32.00;32.40;;;;;;4940806;29;20132;-85
2022/05/09 10:39:14;;;;;;;13.52;3.53;;;32.40;32.60;;;;;;4940985;29;20448;-85
2022/05/09 10:41:57;;;;;;;10.10;3.13;;;32.70;32.40;;;;;;4940532;29;20073;-86
2022/05/09 10:44:47;;;;;;;10.23;3.13;;;32.70;32.50;;;;;;4957612;29;20126;-85
2022/05/09 10:47:46;;;;;;;12.20;3.60;;;32.60;32.10;;;;;;4957777;29;20090;-85
2022/05/09 10:50:22;;;;;;;11.40;3.08;;;32.70;31.20;;;;;;4924769;29;20138;-86
2022/05/09 10:53:10;;;;;;;9.52;2.70;;;32.70;30.90;;;;;;4957442;29;20082;-84
2022/05/09 10:55:36;;;;;;;9.60;3.15;;;32.30;30.90;;;;;;4957557;29;20053;-85
2022/05/09 10:58:16;;;;;;;6.78;3.28;;;32.10;31.50;;;;;;4940444;29;20055;-85
2022/05/09 11:00:45;;;;;;;;;;;32.10;31.40;;;;;;4957470;29;20055;-85
2022/05/09 11:03:19;;;;;;;8.15;2.58;;;32.50;32.40;;;;;;4939918;29;20115;-85
2022/05/09 11:06:11;;;;;;;11.02;2.60;;;32.60;30.50;;;;;;4940054;29;20047;-86
2022/05/09 11:08:56;;;;;;;9.63;2.92;;;32.40;30.90;;;;;;4924253;29;20452;-85
2022/05/09 11:11:51;;;;;;;7.93;2.55;;;32.40;31.30;;;;;;4940227;29;20139;-86
2022/05/09 11:14:41;;;;;;;6.70;3.05;;;32.40;31.00;;;;;;4939503;29;20059;-86
2022/05/09 11:17:17;;;;;;;;;;;32.50;31.30;;;;;;4940464;29;20058;-86
2022/05/09 11:20:07;;;;;;;6.97;2.85;;;32.90;31.60;;;;;;4957224;29;19934;-85
2022/05/09 11:22:35;;;;;;;11.35;2.88;;;32.80;31.10;;;;;;4939630;29;20039;-86
2022/05/09 11:25:06;;;;;;;10.45;2.97;;;32.60;31.20;;;;;;4939773;29;20130;-85
2022/05/09 11:27:53;;;;;;;5.97;2.33;;;32.60;30.70;;;;;;4940033;29;20465;-86
2022/05/09 11:30:26;;;;;;;9.10;2.53;;;32.70;30.60;;;;;;4939482;29;20051;-86
2022/05/09 11:33:15;;;;;;;10.35;2.65;;;32.60;30.60;;;;;;4939852;29;20059;-85
2022/05/09 11:35:41;;;;;;;8.70;2.78;;;32.30;31.40;;;;;;4878862;29;20061;-85
2022/05/09 11:38:31;;;;;;;10.55;2.65;;;32.50;32.20;;;;;;4863332;29;20064;-84
2022/05/09 11:41:15;;;;;;;9.70;2.13;;;32.90;32.10;;;;;;4878865;29;20644;-86
2022/05/09 11:44:02;;;;;;;10.40;2.35;;;33.40;31.90;;;;;;4862990;29;20052;-84
2022/05/09 11:46:40;;;;;;;8.55;2.85;;;33.70;31.30;;;;;;4879069;29;20065;-85
2022/05/09 11:49:23;;;;;;;7.68;2.70;;;33.90;31.40;;;;;;4863276;29;20140;-85
2022/05/09 11:51:57;;;;;;;5.90;2.58;;;34.00;31.30;;;;;;4863263;29;20440;-85
2022/05/09 11:54:31;;;;;;;8.95;2.50;;;34.30;30.90;;;;;;4878480;29;20601;-84
2022/05/09 11:57:01;;;;;;;5.00;1.95;;;34.60;30.30;;;;;;4878453;29;20522;-84
2022/05/09 11:59:28;;;;;;;;;;;34.80;29.80;;;;;;4863394;29;20096;-86
2022/05/09 12:01:57;;;;;;;4.60;1.90;;;34.70;30.00;;;;;;4862403;29;19969;-85
2022/05/09 12:04:33;;;;;;;;;;;34.30;30.50;;;;;;4878741;29;20049;-87
2022/05/09 12:07:00;;;;;;;7.05;2.10;;;34.00;29.90;;;;;;4862964;29;19931;-85
2022/05/09 12:10:17;;;;;;;6.25;2.00;;;33.80;30.70;;;;;;4878203;29;20056;-85
2022/05/09 12:12:54;;;;;;;8.50;1.92;;;33.70;29.20;;;;;;4917574;29;20055;-85
2022/05/09 12:15:23;;;;;;;7.18;1.80;;;33.50;30.10;;;;;;4956207;29;20119;-85
2022/05/09 12:18:15;;;;;;;8.57;2.30;;;33.50;30.00;;;;;;4939207;29;20043;-84
2022/05/09 12:20:44;;;;;;;7.57;2.17;;;33.80;29.90;;;;;;4896622;29;20071;-86
2022/05/09 12:23:11;;;;;;;8.02;2.28;;;34.10;29.80;;;;;;4865601;29;20056;-86
2022/05/09 12:25:39;;;;;;;5.50;1.80;;;34.40;29.60;;;;;;4881066;29;20105;-86
2022/05/09 12:28:22;;;;;;;4.65;2.10;;;34.50;29.20;;;;;;4896644;29;20064;-85
2022/05/09 12:30:47;;;;;;;7.00;2.10;;;34.40;29.00;;;;;;4881021;29;20057;-86
2022/05/09 12:33:37;;;;;;;7.32;2.25;;;34.20;29.20;;;;;;4896458;29;20044;-85
2022/05/09 12:36:13;;;;;;;5.75;1.90;;;34.10;28.70;;;;;;4880136;29;20048;-85
2022/05/09 12:38:42;;;;;;;6.68;1.70;;;34.20;29.50;;;;;;4881134;29;20065;-86
2022/05/09 12:41:12;;;;;;;6.93;1.73;;;34.30;28.80;;;;;;4880960;29;20044;-86
2022/05/09 12:43:42;;;;;;;7.25;2.00;;;34.40;29.30;;;;;;4880676;29;20045;-85
2022/05/09 12:46:19;;;;;;;7.97;2.10;;;34.70;28.80;;;;;;4896381;29;20511;-85
2022/05/09 12:48:45;;;;;;;5.80;2.05;;;34.80;28.70;;;;;;4880672;29;20049;-87
2022/05/09 12:51:13;;;;;;;7.25;2.50;;;34.80;28.70;;;;;;4896354;29;20065;-85
2022/05/09 12:53:40;;;;;;;6.30;1.90;;;34.80;28.10;;;;;;4896384;29;20056;-85
2022/05/09 12:56:12;;;;;;;5.72;2.15;;;34.40;28.80;;;;;;4880667;29;20052;-86
2022/05/09 12:58:41;;;;;;;6.25;2.10;;;34.30;29.30;;;;;;4949280;29;20066;-86
2022/05/09 13:01:24;;;;;;;6.07;2.10;;;34.20;29.20;;;;;;4921978;29;20063;-86
2022/05/09 13:03:56;;;;;;;5.30;1.88;;;34.40;29.00;;;;;;4955232;29;20059;-86
2022/05/09 13:06:27;;;;;;;7.22;2.10;;;34.30;29.20;;;;;;4938200;29;20043;-85
2022/05/09 13:08:54;;;;;;;9.32;2.00;;;34.40;28.40;;;;;;4938073;29;20057;-86
2022/05/09 13:11:26;;;;;;;5.22;1.70;;;34.40;28.80;;;;;;4937982;29;20412;-86
2022/05/09 13:14:06;;;;;;;6.10;1.85;;;34.40;28.40;;;;;;4954928;29;20095;-86
2022/05/09 13:16:41;;;;;;;6.78;2.00;;;34.30;28.40;;;;;;4922284;29;20050;-86